Davis Monthan Air Force Base
KDMA : now visible

Airfield :











YOU CAN JOIN US ON...

 
LOGIN :

Register | Disclaimer

   EN    FR    IT 

 









Legend :    VFR   Marginal VFR   IFR   Intensive IFR   Very Intensive IFR
Visi :
Ceiling :
>= 8 km
>= 3000ft
5 to 8 km
1000 to 3000 ft
1500m to 5 km
500 to 1000 ft
800 to 1500m
200 to 500 ft
< 800m
< 200 ft
Symbols :   Thunderstorms  Fog  Heavy snow  Heavy precipitations  Wind > 20 kt






- Airport Elevation : 2704 ft


KDMA - Davis Monthan Air Force Base

CURRENT METAR :
  • 042358Z AUTO 32012G18KT 10SM CLR 40/08 A2989 RMK AO2 PK WND 34027/02 SLP071 T03960081 10401 20350 57023 FZRANO $

EXPIRED METARs :
  • 042258Z AUTO 33011G20KT 10SM CLR 40/08 A2990 RMK AO2 LTG DSNT S SLP073 T03960081 FZRANO $
  • 042232Z AUTO 31011G18KT 10SM CLR 40/07 A2991 RMK AO2 WSHFT 29 SLP077 FZRANO $
  • 042219Z AUTO 01013KT 10SM CLR 40/06 A2991 RMK AO2 WSHFT 15 SLP077 FZRANO $
  • 042158Z AUTO 35010G20KT 10SM CLR 40/07 A2993 RMK AO2 SLP084 T03980072 FZRANO $

TAF TAF KDMA
Valid from the 04 at 22:00 until the 06 at 04:00 UTC


042203Z 0422/0604 29012KT 9999 FEW090 QNH2989INS
TEMPO 0422/0503 32012G18KT
BECMG 0502/0503 30009KT 9999 FEW090 QNH2993INS
BECMG 0505/0506 VRB06KT 9999 SKC QNH2997INS
BECMG 0519/0520 29012KT 9999 FEW090 QNH2984INS TX40/0423Z TN21/0513Z
KZAB FIR / North America



MET'MAP, your aeronautical weather chart ! - Copyright ORBIFLY December 2007 - Disclaimer

ORBIFLY MET'MAP TEAM :

Programming & Development : Alexandra Zaïnal
Concept & original design : Baudouin d'Aumeries
Assistance for programming : Marc-Olivier Méhu
Technical & hardware support : Manuel Goepfert

Contact : metmap@orbifly.com




SOURCES & CREDITS :

   NOAA       Earth
Advisory